Mission, Canada
Current Conditions -  °F | °C
As of 1:00 PM on Thursday 23 Oct 2014 (Local Time) from CYXX Reporting Station
Broken Clouds Broken Clouds  
Wind Chill: 12°   Ceiling: 14000
Heat Index: 12°   Visibility: 10mi
Dew Point: 11°   Wind: 14mph
Humidity: 94%   Direction: 180°S
Pressure: 29.76"   Gusts: 21mph
Location:  49.13°N, 122.3°W
Report Text: CYXX 232000Z 18012G18KT 10SM FEW010 SCT020TCU BKN140 12/11 A2976 RMK SC2TCU2AC1 VIS HIER S - W SLP079
Loading
Personal Weather Stations






























Interactive Weather Map
Tropical Storm Tracking
New forecast layout! Learn more

10-Day Weather Forecast

Advertisements
Track Severe Weather on mobile